sensor_id;sensor_type;location;lat;lon;timestamp;P1;durP1;ratioP1;P2;durP2;ratioP2
54458;SDS011;40368;49.350;8.152;2023-12-29T00:00:37;20;;;41;;
54458;SDS011;40368;49.350;8.152;2023-12-29T00:01:37;21;;;40;;
54458;SDS011;40368;49.350;8.152;2023-12-29T00:02:37;20;;;42;;
54458;SDS011;40368;49.350;8.152;2023-12-29T00:03:37;18;;;29;;
54458;SDS011;40368;49.350;8.152;2023-12-29T00:04:37;19;;;34;;
54458;SDS011;40368;49.350;8.152;2023-12-29T00:05:37;21;;;43;;
54458;SDS011;40368;49.350;8.152;2023-12-29T00:06:37;24;;;53;;
54458;SDS011;40368;49.350;8.152;2023-12-29T00:07:37;19;;;31;;
54458;SDS011;40368;49.350;8.152;2023-12-29T00:08:37;20;;;36;;
54458;SDS011;40368;49.350;8.152;2023-12-29T00:09:37;27;;;46;;
54458;SDS011;40368;49.350;8.152;2023-12-29T00:10:37;21;;;36;;
54458;SDS011;40368;49.350;8.152;2023-12-29T00:11:37;22;;;48;;
54458;SDS011;40368;49.350;8.152;2023-12-29T00:12:37;24;;;63;;
54458;SDS011;40368;49.350;8.152;2023-12-29T00:13:37;20;;;36;;
54458;SDS011;40368;49.350;8.152;2023-12-29T00:14:38;23;;;44;;
54458;SDS011;40368;49.350;8.152;2023-12-29T00:15:37;18;;;34;;
54458;SDS011;40368;49.350;8.152;2023-12-29T00:16:37;24;;;44;;
54458;SDS011;40368;49.350;8.152;2023-12-29T00:17:37;24;;;45;;
54458;SDS011;40368;49.350;8.152;2023-12-29T00:18:37;22;;;51;;
54458;SDS011;40368;49.350;8.152;2023-12-29T00:19:37;29;;;60;;
54458;SDS011;40368;49.350;8.152;2023-12-29T00:20:37;24;;;52;;
54458;SDS011;40368;49.350;8.152;2023-12-29T00:21:37;27;;;46;;
54458;SDS011;40368;49.350;8.152;2023-12-29T00:22:37;22;;;41;;
54458;SDS011;40368;49.350;8.152;2023-12-29T00:23:37;26;;;58;;
54458;SDS011;40368;49.350;8.152;2023-12-29T00:24:37;23;;;58;;
54458;SDS011;40368;49.350;8.152;2023-12-29T00:25:37;28;;;65;;
54458;SDS011;40368;49.350;8.152;2023-12-29T00:26:37;23;;;50;;
54458;SDS011;40368;49.350;8.152;2023-12-29T00:27:37;23;;;50;;
54458;SDS011;40368;49.350;8.152;2023-12-29T00:28:37;24;;;52;;
54458;SDS011;40368;49.350;8.152;2023-12-29T00:29:37;21;;;48;;
54458;SDS011;40368;49.350;8.152;2023-12-29T00:30:38;21;;;35;;
54458;SDS011;40368;49.350;8.152;2023-12-29T00:31:37;24;;;49;;
54458;SDS011;40368;49.350;8.152;2023-12-29T00:32:37;23;;;42;;
54458;SDS011;40368;49.350;8.152;2023-12-29T00:33:37;25;;;33;;
54458;SDS011;40368;49.350;8.152;2023-12-29T00:34:37;23;;;33;;
54458;SDS011;40368;49.350;8.152;2023-12-29T00:35:37;21;;;38;;
54458;SDS011;40368;49.350;8.152;2023-12-29T00:36:37;22;;;56;;
54458;SDS011;40368;49.350;8.152;2023-12-29T00:37:37;22;;;51;;
54458;SDS011;40368;49.350;8.152;2023-12-29T00:38:37;21;;;58;;
54458;SDS011;40368;49.350;8.152;2023-12-29T00:39:37;24;;;53;;
54458;SDS011;40368;49.350;8.152;2023-12-29T00:40:37;23;;;47;;
54458;SDS011;40368;49.350;8.152;2023-12-29T00:41:38;22;;;52;;
54458;SDS011;40368;49.350;8.152;2023-12-29T00:42:37;21;;;33;;
54458;SDS011;40368;49.350;8.152;2023-12-29T00:43:37;20;;;39;;
54458;SDS011;40368;49.350;8.152;2023-12-29T00:44:37;19;;;31;;
54458;SDS011;40368;49.350;8.152;2023-12-29T00:45:37;25;;;41;;
54458;SDS011;40368;49.350;8.152;2023-12-29T00:46:37;20;;;35;;
54458;SDS011;40368;49.350;8.152;2023-12-29T00:47:37;22;;;42;;
54458;SDS011;40368;49.350;8.152;2023-12-29T00:48:37;31;;;49;;
54458;SDS011;40368;49.350;8.152;2023-12-29T00:49:38;22;;;45;;
54458;SDS011;40368;49.350;8.152;2023-12-29T00:50:37;23;;;44;;
54458;SDS011;40368;49.350;8.152;2023-12-29T00:51:38;23;;;33;;
54458;SDS011;40368;49.350;8.152;2023-12-29T00:52:38;22;;;49;;
54458;SDS011;40368;49.350;8.152;2023-12-29T00:53:37;24;;;36;;
54458;SDS011;40368;49.350;8.152;2023-12-29T00:54:37;22;;;39;;
54458;SDS011;40368;49.350;8.152;2023-12-29T00:55:37;26;;;53;;
54458;SDS011;40368;49.350;8.152;2023-12-29T00:56:37;19;;;31;;
54458;SDS011;40368;49.350;8.152;2023-12-29T00:57:37;21;;;40;;
54458;SDS011;40368;49.350;8.152;2023-12-29T00:58:37;23;;;49;;
54458;SDS011;40368;49.350;8.152;2023-12-29T00:59:37;22;;;37;;
54458;SDS011;40368;49.350;8.152;2023-12-29T01:00:37;24;;;58;;
54458;SDS011;40368;49.350;8.152;2023-12-29T01:01:37;20;;;34;;
54458;SDS011;40368;49.350;8.152;2023-12-29T01:02:37;24;;;51;;
54458;SDS011;40368;49.350;8.152;2023-12-29T01:03:37;23;;;40;;
54458;SDS011;40368;49.350;8.152;2023-12-29T01:04:37;22;;;45;;
54458;SDS011;40368;49.350;8.152;2023-12-29T01:05:37;23;;;52;;
54458;SDS011;40368;49.350;8.152;2023-12-29T01:06:37;21;;;41;;
54458;SDS011;40368;49.350;8.152;2023-12-29T01:07:37;27;;;51;;
54458;SDS011;40368;49.350;8.152;2023-12-29T01:08:37;23;;;45;;
54458;SDS011;40368;49.350;8.152;2023-12-29T01:09:37;25;;;59;;
54458;SDS011;40368;49.350;8.152;2023-12-29T01:10:37;22;;;43;;
54458;SDS011;40368;49.350;8.152;2023-12-29T01:11:37;19;;;47;;
54458;SDS011;40368;49.350;8.152;2023-12-29T01:12:37;24;;;61;;
54458;SDS011;40368;49.350;8.152;2023-12-29T01:13:37;20;;;42;;
54458;SDS011;40368;49.350;8.152;2023-12-29T01:14:37;23;;;39;;
54458;SDS011;40368;49.350;8.152;2023-12-29T01:15:37;20;;;36;;
54458;SDS011;40368;49.350;8.152;2023-12-29T01:16:37;21;;;36;;
54458;SDS011;40368;49.350;8.152;2023-12-29T01:17:37;20;;;29;;
54458;SDS011;40368;49.350;8.152;2023-12-29T01:18:38;21;;;37;;
54458;SDS011;40368;49.350;8.152;2023-12-29T01:19:37;21;;;45;;
54458;SDS011;40368;49.350;8.152;2023-12-29T01:20:37;20;;;30;;
54458;SDS011;40368;49.350;8.152;2023-12-29T01:21:37;23;;;36;;
54458;SDS011;40368;49.350;8.152;2023-12-29T01:22:37;22;;;40;;
54458;SDS011;40368;49.350;8.152;2023-12-29T01:23:37;22;;;40;;
54458;SDS011;40368;49.350;8.152;2023-12-29T01:24:37;22;;;45;;
54458;SDS011;40368;49.350;8.152;2023-12-29T01:25:37;20;;;36;;
54458;SDS011;40368;49.350;8.152;2023-12-29T01:26:37;21;;;38;;
54458;SDS011;40368;49.350;8.152;2023-12-29T01:27:37;22;;;58;;
54458;SDS011;40368;49.350;8.152;2023-12-29T01:28:37;21;;;40;;
54458;SDS011;40368;49.350;8.152;2023-12-29T01:29:37;18;;;31;;
54458;SDS011;40368;49.350;8.152;2023-12-29T01:30:37;22;;;45;;
54458;SDS011;40368;49.350;8.152;2023-12-29T01:31:37;22;;;36;;
54458;SDS011;40368;49.350;8.152;2023-12-29T01:32:37;20;;;37;;
54458;SDS011;40368;49.350;8.152;2023-12-29T01:33:37;20;;;46;;
54458;SDS011;40368;49.350;8.152;2023-12-29T01:34:37;20;;;34;;
54458;SDS011;40368;49.350;8.152;2023-12-29T01:35:38;18;;;25;;
54458;SDS011;40368;49.350;8.152;2023-12-29T01:36:37;18;;;35;;
54458;SDS011;40368;49.350;8.152;2023-12-29T01:37:37;20;;;52;;
54458;SDS011;40368;49.350;8.152;2023-12-29T01:38:38;20;;;52;;
54458;SDS011;40368;49.350;8.152;2023-12-29T01:39:37;18;;;27;;
54458;SDS011;40368;49.350;8.152;2023-12-29T01:40:45;19;;;33;;
54458;SDS011;40368;49.350;8.152;2023-12-29T01:41:37;18;;;32;;
54458;SDS011;40368;49.350;8.152;2023-12-29T01:42:37;21;;;35;;
54458;SDS011;40368;49.350;8.152;2023-12-29T01:44:01;22;;;42;;
54458;SDS011;40368;49.350;8.152;2023-12-29T01:44:37;20;;;45;;
54458;SDS011;40368;49.350;8.152;2023-12-29T01:45:37;18;;;42;;
54458;SDS011;40368;49.350;8.152;2023-12-29T01:46:37;17;;;33;;
54458;SDS011;40368;49.350;8.152;2023-12-29T01:47:37;19;;;44;;
54458;SDS011;40368;49.350;8.152;2023-12-29T01:48:37;19;;;36;;
54458;SDS011;40368;49.350;8.152;2023-12-29T01:49:37;17;;;26;;
54458;SDS011;40368;49.350;8.152;2023-12-29T01:50:37;18;;;40;;
54458;SDS011;40368;49.350;8.152;2023-12-29T01:51:37;17;;;25;;
54458;SDS011;40368;49.350;8.152;2023-12-29T01:52:37;19;;;30;;
54458;SDS011;40368;49.350;8.152;2023-12-29T01:53:37;19;;;30;;
54458;SDS011;40368;49.350;8.152;2023-12-29T01:54:37;19;;;34;;
54458;SDS011;40368;49.350;8.152;2023-12-29T01:55:37;17;;;28;;
54458;SDS011;40368;49.350;8.152;2023-12-29T01:56:37;17;;;30;;
54458;SDS011;40368;49.350;8.152;2023-12-29T01:57:37;17;;;26;;
54458;SDS011;40368;49.350;8.152;2023-12-29T01:58:37;17;;;32;;
54458;SDS011;40368;49.350;8.152;2023-12-29T01:59:37;16;;;29;;
54458;SDS011;40368;49.350;8.152;2023-12-29T02:01:37;17;;;32;;
54458;SDS011;40368;49.350;8.152;2023-12-29T02:02:37;19;;;39;;
54458;SDS011;40368;49.350;8.152;2023-12-29T02:03:37;20;;;29;;
54458;SDS011;40368;49.350;8.152;2023-12-29T02:04:37;18;;;45;;
54458;SDS011;40368;49.350;8.152;2023-12-29T02:05:37;19;;;37;;
54458;SDS011;40368;49.350;8.152;2023-12-29T02:06:37;18;;;34;;
54458;SDS011;40368;49.350;8.152;2023-12-29T02:07:37;20;;;30;;
54458;SDS011;40368;49.350;8.152;2023-12-29T02:08:37;18;;;32;;
54458;SDS011;40368;49.350;8.152;2023-12-29T02:09:37;19;;;41;;
54458;SDS011;40368;49.350;8.152;2023-12-29T02:10:37;20;;;28;;
54458;SDS011;40368;49.350;8.152;2023-12-29T02:11:37;16;;;26;;
54458;SDS011;40368;49.350;8.152;2023-12-29T02:12:37;16;;;26;;
54458;SDS011;40368;49.350;8.152;2023-12-29T02:13:37;18;;;29;;
54458;SDS011;40368;49.350;8.152;2023-12-29T02:14:37;20;;;29;;
54458;SDS011;40368;49.350;8.152;2023-12-29T02:15:37;19;;;33;;
54458;SDS011;40368;49.350;8.152;2023-12-29T02:16:38;19;;;33;;
54458;SDS011;40368;49.350;8.152;2023-12-29T02:17:38;19;;;35;;
54458;SDS011;40368;49.350;8.152;2023-12-29T02:18:37;14;;;20;;
54458;SDS011;40368;49.350;8.152;2023-12-29T02:19:38;18;;;32;;
54458;SDS011;40368;49.350;8.152;2023-12-29T02:20:37;20;;;35;;
54458;SDS011;40368;49.350;8.152;2023-12-29T02:21:37;16;;;23;;
54458;SDS011;40368;49.350;8.152;2023-12-29T02:22:37;17;;;36;;
54458;SDS011;40368;49.350;8.152;2023-12-29T02:23:37;17;;;25;;
54458;SDS011;40368;49.350;8.152;2023-12-29T02:24:38;17;;;31;;
54458;SDS011;40368;49.350;8.152;2023-12-29T02:25:37;19;;;36;;
54458;SDS011;40368;49.350;8.152;2023-12-29T02:26:37;18;;;30;;
54458;SDS011;40368;49.350;8.152;2023-12-29T02:27:40;17;;;36;;
54458;SDS011;40368;49.350;8.152;2023-12-29T02:28:38;18;;;34;;
54458;SDS011;40368;49.350;8.152;2023-12-29T02:29:37;17;;;24;;
54458;SDS011;40368;49.350;8.152;2023-12-29T02:30:38;18;;;28;;
54458;SDS011;40368;49.350;8.152;2023-12-29T02:31:37;17;;;31;;
54458;SDS011;40368;49.350;8.152;2023-12-29T02:32:38;25;;;44;;
54458;SDS011;40368;49.350;8.152;2023-12-29T02:33:38;19;;;42;;
54458;SDS011;40368;49.350;8.152;2023-12-29T02:34:37;17;;;24;;
54458;SDS011;40368;49.350;8.152;2023-12-29T02:35:38;16;;;34;;
54458;SDS011;40368;49.350;8.152;2023-12-29T02:36:37;18;;;29;;
54458;SDS011;40368;49.350;8.152;2023-12-29T02:37:37;17;;;25;;
54458;SDS011;40368;49.350;8.152;2023-12-29T02:38:37;18;;;33;;
54458;SDS011;40368;49.350;8.152;2023-12-29T02:39:37;17;;;32;;
54458;SDS011;40368;49.350;8.152;2023-12-29T02:40:37;17;;;24;;
54458;SDS011;40368;49.350;8.152;2023-12-29T02:41:37;19;;;37;;
54458;SDS011;40368;49.350;8.152;2023-12-29T02:42:37;17;;;32;;
54458;SDS011;40368;49.350;8.152;2023-12-29T02:43:37;15;;;22;;
54458;SDS011;40368;49.350;8.152;2023-12-29T02:44:37;18;;;36;;
54458;SDS011;40368;49.350;8.152;2023-12-29T02:45:37;18;;;36;;
54458;SDS011;40368;49.350;8.152;2023-12-29T02:46:37;22;;;46;;
54458;SDS011;40368;49.350;8.152;2023-12-29T02:47:37;22;;;41;;
54458;SDS011;40368;49.350;8.152;2023-12-29T02:48:38;20;;;42;;
54458;SDS011;40368;49.350;8.152;2023-12-29T02:49:37;22;;;40;;
54458;SDS011;40368;49.350;8.152;2023-12-29T02:50:37;22;;;40;;
54458;SDS011;40368;49.350;8.152;2023-12-29T02:51:37;19;;;32;;
54458;SDS011;40368;49.350;8.152;2023-12-29T02:52:37;20;;;29;;
54458;SDS011;40368;49.350;8.152;2023-12-29T02:53:37;18;;;32;;
54458;SDS011;40368;49.350;8.152;2023-12-29T02:54:37;23;;;44;;
54458;SDS011;40368;49.350;8.152;2023-12-29T02:55:39;22;;;49;;
54458;SDS011;40368;49.350;8.152;2023-12-29T02:56:37;20;;;33;;
54458;SDS011;40368;49.350;8.152;2023-12-29T02:57:37;20;;;39;;
54458;SDS011;40368;49.350;8.152;2023-12-29T02:58:37;20;;;44;;
54458;SDS011;40368;49.350;8.152;2023-12-29T02:59:37;22;;;38;;
54458;SDS011;40368;49.350;8.152;2023-12-29T03:00:37;20;;;37;;
54458;SDS011;40368;49.350;8.152;2023-12-29T03:01:37;19;;;32;;
54458;SDS011;40368;49.350;8.152;2023-12-29T03:02:37;22;;;53;;
54458;SDS011;40368;49.350;8.152;2023-12-29T03:03:37;19;;;48;;
54458;SDS011;40368;49.350;8.152;2023-12-29T03:04:37;22;;;34;;
54458;SDS011;40368;49.350;8.152;2023-12-29T03:05:37;21;;;46;;
54458;SDS011;40368;49.350;8.152;2023-12-29T03:06:37;19;;;25;;
54458;SDS011;40368;49.350;8.152;2023-12-29T03:07:37;20;;;28;;
54458;SDS011;40368;49.350;8.152;2023-12-29T03:08:37;24;;;39;;
54458;SDS011;40368;49.350;8.152;2023-12-29T03:09:37;24;;;39;;
54458;SDS011;40368;49.350;8.152;2023-12-29T03:10:37;20;;;34;;
54458;SDS011;40368;49.350;8.152;2023-12-29T03:11:37;23;;;48;;
54458;SDS011;40368;49.350;8.152;2023-12-29T03:12:37;21;;;42;;
54458;SDS011;40368;49.350;8.152;2023-12-29T03:13:37;20;;;38;;
54458;SDS011;40368;49.350;8.152;2023-12-29T03:14:38;20;;;28;;
54458;SDS011;40368;49.350;8.152;2023-12-29T03:15:38;22;;;44;;
54458;SDS011;40368;49.350;8.152;2023-12-29T03:16:37;17;;;34;;
54458;SDS011;40368;49.350;8.152;2023-12-29T03:17:37;18;;;35;;
54458;SDS011;40368;49.350;8.152;2023-12-29T03:18:37;19;;;48;;
54458;SDS011;40368;49.350;8.152;2023-12-29T03:19:37;19;;;38;;
54458;SDS011;40368;49.350;8.152;2023-12-29T03:20:37;19;;;37;;
54458;SDS011;40368;49.350;8.152;2023-12-29T03:21:37;18;;;32;;
54458;SDS011;40368;49.350;8.152;2023-12-29T03:22:37;22;;;37;;
54458;SDS011;40368;49.350;8.152;2023-12-29T03:23:37;18;;;32;;
54458;SDS011;40368;49.350;8.152;2023-12-29T03:24:39;18;;;27;;
54458;SDS011;40368;49.350;8.152;2023-12-29T03:25:37;21;;;36;;
54458;SDS011;40368;49.350;8.152;2023-12-29T03:26:37;20;;;38;;
54458;SDS011;40368;49.350;8.152;2023-12-29T03:27:37;20;;;38;;
54458;SDS011;40368;49.350;8.152;2023-12-29T03:28:37;20;;;31;;
54458;SDS011;40368;49.350;8.152;2023-12-29T03:29:37;20;;;39;;
54458;SDS011;40368;49.350;8.152;2023-12-29T03:30:37;21;;;38;;
54458;SDS011;40368;49.350;8.152;2023-12-29T03:31:37;21;;;43;;
54458;SDS011;40368;49.350;8.152;2023-12-29T03:32:37;22;;;33;;
54458;SDS011;40368;49.350;8.152;2023-12-29T03:33:37;19;;;39;;
54458;SDS011;40368;49.350;8.152;2023-12-29T03:34:37;19;;;39;;
54458;SDS011;40368;49.350;8.152;2023-12-29T03:35:37;20;;;44;;
54458;SDS011;40368;49.350;8.152;2023-12-29T03:36:37;20;;;41;;
54458;SDS011;40368;49.350;8.152;2023-12-29T03:37:37;20;;;34;;
54458;SDS011;40368;49.350;8.152;2023-12-29T03:38:37;20;;;40;;
54458;SDS011;40368;49.350;8.152;2023-12-29T03:39:37;22;;;34;;
54458;SDS011;40368;49.350;8.152;2023-12-29T03:40:37;24;;;43;;
54458;SDS011;40368;49.350;8.152;2023-12-29T03:41:37;20;;;41;;
54458;SDS011;40368;49.350;8.152;2023-12-29T03:42:37;22;;;51;;
54458;SDS011;40368;49.350;8.152;2023-12-29T03:43:37;20;;;38;;
54458;SDS011;40368;49.350;8.152;2023-12-29T03:44:37;22;;;34;;
54458;SDS011;40368;49.350;8.152;2023-12-29T03:45:37;23;;;43;;
54458;SDS011;40368;49.350;8.152;2023-12-29T03:46:37;21;;;35;;
54458;SDS011;40368;49.350;8.152;2023-12-29T03:47:37;20;;;43;;
54458;SDS011;40368;49.350;8.152;2023-12-29T03:48:37;20;;;30;;
54458;SDS011;40368;49.350;8.152;2023-12-29T03:49:37;23;;;42;;
54458;SDS011;40368;49.350;8.152;2023-12-29T03:50:37;22;;;41;;
54458;SDS011;40368;49.350;8.152;2023-12-29T03:51:37;22;;;48;;
54458;SDS011;40368;49.350;8.152;2023-12-29T03:52:37;23;;;39;;
54458;SDS011;40368;49.350;8.152;2023-12-29T03:53:37;22;;;52;;
54458;SDS011;40368;49.350;8.152;2023-12-29T03:54:38;22;;;52;;
54458;SDS011;40368;49.350;8.152;2023-12-29T03:55:38;20;;;39;;
54458;SDS011;40368;49.350;8.152;2023-12-29T03:56:37;22;;;46;;
54458;SDS011;40368;49.350;8.152;2023-12-29T03:57:37;20;;;36;;
54458;SDS011;40368;49.350;8.152;2023-12-29T03:58:37;21;;;37;;
54458;SDS011;40368;49.350;8.152;2023-12-29T03:59:37;21;;;64;;
54458;SDS011;40368;49.350;8.152;2023-12-29T04:00:37;19;;;34;;
54458;SDS011;40368;49.350;8.152;2023-12-29T04:01:37;24;;;50;;
54458;SDS011;40368;49.350;8.152;2023-12-29T04:02:37;24;;;50;;
54458;SDS011;40368;49.350;8.152;2023-12-29T04:03:37;20;;;44;;
54458;SDS011;40368;49.350;8.152;2023-12-29T04:04:37;24;;;50;;
54458;SDS011;40368;49.350;8.152;2023-12-29T04:05:37;20;;;43;;
54458;SDS011;40368;49.350;8.152;2023-12-29T04:06:37;23;;;40;;
54458;SDS011;40368;49.350;8.152;2023-12-29T04:07:38;20;;;31;;
54458;SDS011;40368;49.350;8.152;2023-12-29T04:08:37;20;;;32;;
54458;SDS011;40368;49.350;8.152;2023-12-29T04:09:37;20;;;32;;
54458;SDS011;40368;49.350;8.152;2023-12-29T04:10:37;20;;;49;;
54458;SDS011;40368;49.350;8.152;2023-12-29T04:11:37;22;;;32;;
54458;SDS011;40368;49.350;8.152;2023-12-29T04:12:37;20;;;59;;
54458;SDS011;40368;49.350;8.152;2023-12-29T04:13:37;20;;;59;;
54458;SDS011;40368;49.350;8.152;2023-12-29T04:14:37;22;;;38;;
54458;SDS011;40368;49.350;8.152;2023-12-29T04:15:37;22;;;38;;
54458;SDS011;40368;49.350;8.152;2023-12-29T04:16:37;19;;;34;;
54458;SDS011;40368;49.350;8.152;2023-12-29T04:17:37;20;;;53;;
54458;SDS011;40368;49.350;8.152;2023-12-29T04:18:37;19;;;35;;
54458;SDS011;40368;49.350;8.152;2023-12-29T04:19:37;22;;;39;;
54458;SDS011;40368;49.350;8.152;2023-12-29T04:20:37;18;;;31;;
54458;SDS011;40368;49.350;8.152;2023-12-29T04:21:37;20;;;34;;
54458;SDS011;40368;49.350;8.152;2023-12-29T04:22:37;22;;;42;;
54458;SDS011;40368;49.350;8.152;2023-12-29T04:23:37;18;;;30;;
54458;SDS011;40368;49.350;8.152;2023-12-29T04:24:37;21;;;42;;
54458;SDS011;40368;49.350;8.152;2023-12-29T04:25:37;18;;;32;;
54458;SDS011;40368;49.350;8.152;2023-12-29T04:26:37;22;;;30;;
54458;SDS011;40368;49.350;8.152;2023-12-29T04:27:37;20;;;37;;
54458;SDS011;40368;49.350;8.152;2023-12-29T04:28:37;20;;;43;;
54458;SDS011;40368;49.350;8.152;2023-12-29T04:29:37;21;;;52;;
54458;SDS011;40368;49.350;8.152;2023-12-29T04:30:37;18;;;37;;
54458;SDS011;40368;49.350;8.152;2023-12-29T04:31:37;22;;;41;;
54458;SDS011;40368;49.350;8.152;2023-12-29T04:32:37;17;;;44;;
54458;SDS011;40368;49.350;8.152;2023-12-29T04:33:37;18;;;31;;
54458;SDS011;40368;49.350;8.152;2023-12-29T04:34:37;19;;;32;;
54458;SDS011;40368;49.350;8.152;2023-12-29T04:35:37;19;;;42;;
54458;SDS011;40368;49.350;8.152;2023-12-29T04:36:37;18;;;28;;
54458;SDS011;40368;49.350;8.152;2023-12-29T04:37:37;20;;;45;;
54458;SDS011;40368;49.350;8.152;2023-12-29T04:38:38;18;;;27;;
54458;SDS011;40368;49.350;8.152;2023-12-29T04:39:37;19;;;30;;
54458;SDS011;40368;49.350;8.152;2023-12-29T04:40:37;16;;;24;;
54458;SDS011;40368;49.350;8.152;2023-12-29T04:41:37;18;;;26;;
54458;SDS011;40368;49.350;8.152;2023-12-29T04:42:37;20;;;28;;
54458;SDS011;40368;49.350;8.152;2023-12-29T04:43:37;21;;;47;;
54458;SDS011;40368;49.350;8.152;2023-12-29T04:44:37;21;;;35;;
54458;SDS011;40368;49.350;8.152;2023-12-29T04:45:37;19;;;42;;
54458;SDS011;40368;49.350;8.152;2023-12-29T04:46:37;17;;;29;;
54458;SDS011;40368;49.350;8.152;2023-12-29T04:47:37;18;;;24;;
54458;SDS011;40368;49.350;8.152;2023-12-29T04:48:37;21;;;40;;
54458;SDS011;40368;49.350;8.152;2023-12-29T04:49:37;21;;;40;;
54458;SDS011;40368;49.350;8.152;2023-12-29T04:50:37;20;;;37;;
54458;SDS011;40368;49.350;8.152;2023-12-29T04:51:37;19;;;38;;
54458;SDS011;40368;49.350;8.152;2023-12-29T04:52:37;17;;;22;;
54458;SDS011;40368;49.350;8.152;2023-12-29T04:53:37;19;;;37;;
54458;SDS011;40368;49.350;8.152;2023-12-29T04:54:37;19;;;37;;
54458;SDS011;40368;49.350;8.152;2023-12-29T04:55:37;19;;;33;;
54458;SDS011;40368;49.350;8.152;2023-12-29T04:56:37;19;;;33;;
54458;SDS011;40368;49.350;8.152;2023-12-29T04:57:37;18;;;22;;
54458;SDS011;40368;49.350;8.152;2023-12-29T04:58:37;18;;;37;;
54458;SDS011;40368;49.350;8.152;2023-12-29T04:59:37;19;;;33;;
54458;SDS011;40368;49.350;8.152;2023-12-29T05:00:37;19;;;36;;
54458;SDS011;40368;49.350;8.152;2023-12-29T05:01:37;19;;;29;;
54458;SDS011;40368;49.350;8.152;2023-12-29T05:02:37;22;;;47;;
54458;SDS011;40368;49.350;8.152;2023-12-29T05:03:37;17;;;25;;
54458;SDS011;40368;49.350;8.152;2023-12-29T05:04:37;19;;;31;;
54458;SDS011;40368;49.350;8.152;2023-12-29T05:05:37;19;;;31;;
54458;SDS011;40368;49.350;8.152;2023-12-29T05:06:37;19;;;31;;
54458;SDS011;40368;49.350;8.152;2023-12-29T05:07:37;16;;;33;;
54458;SDS011;40368;49.350;8.152;2023-12-29T05:08:37;17;;;28;;
54458;SDS011;40368;49.350;8.152;2023-12-29T05:09:37;17;;;25;;
54458;SDS011;40368;49.350;8.152;2023-12-29T05:10:37;15;;;19;;
54458;SDS011;40368;49.350;8.152;2023-12-29T05:11:37;16;;;25;;
54458;SDS011;40368;49.350;8.152;2023-12-29T05:12:37;16;;;25;;
54458;SDS011;40368;49.350;8.152;2023-12-29T05:13:37;16;;;23;;
54458;SDS011;40368;49.350;8.152;2023-12-29T05:14:37;16;;;33;;
54458;SDS011;40368;49.350;8.152;2023-12-29T05:15:37;17;;;30;;
54458;SDS011;40368;49.350;8.152;2023-12-29T05:16:37;16;;;32;;
54458;SDS011;40368;49.350;8.152;2023-12-29T05:17:37;16;;;32;;
54458;SDS011;40368;49.350;8.152;2023-12-29T05:18:37;16;;;38;;
54458;SDS011;40368;49.350;8.152;2023-12-29T05:19:37;18;;;24;;
54458;SDS011;40368;49.350;8.152;2023-12-29T05:20:37;16;;;19;;
54458;SDS011;40368;49.350;8.152;2023-12-29T05:21:37;17;;;32;;
54458;SDS011;40368;49.350;8.152;2023-12-29T05:22:37;15;;;23;;
54458;SDS011;40368;49.350;8.152;2023-12-29T05:23:37;15;;;23;;
54458;SDS011;40368;49.350;8.152;2023-12-29T05:24:37;15;;;27;;
54458;SDS011;40368;49.350;8.152;2023-12-29T05:25:37;15;;;23;;
54458;SDS011;40368;49.350;8.152;2023-12-29T05:26:37;16;;;20;;
54458;SDS011;40368;49.350;8.152;2023-12-29T05:27:37;16;;;26;;
54458;SDS011;40368;49.350;8.152;2023-12-29T05:28:37;16;;;26;;
54458;SDS011;40368;49.350;8.152;2023-12-29T05:29:37;16;;;26;;
54458;SDS011;40368;49.350;8.152;2023-12-29T05:30:37;15;;;26;;
54458;SDS011;40368;49.350;8.152;2023-12-29T05:31:37;15;;;26;;
54458;SDS011;40368;49.350;8.152;2023-12-29T05:32:37;14;;;21;;
54458;SDS011;40368;49.350;8.152;2023-12-29T05:33:37;16;;;29;;
54458;SDS011;40368;49.350;8.152;2023-12-29T05:34:37;14;;;24;;
54458;SDS011;40368;49.350;8.152;2023-12-29T05:35:37;14;;;21;;
54458;SDS011;40368;49.350;8.152;2023-12-29T05:36:37;15;;;35;;
54458;SDS011;40368;49.350;8.152;2023-12-29T05:37:37;14;;;26;;
54458;SDS011;40368;49.350;8.152;2023-12-29T05:38:37;17;;;25;;
54458;SDS011;40368;49.350;8.152;2023-12-29T05:39:37;15;;;18;;
54458;SDS011;40368;49.350;8.152;2023-12-29T05:40:37;18;;;41;;
54458;SDS011;40368;49.350;8.152;2023-12-29T05:41:37;16;;;30;;
54458;SDS011;40368;49.350;8.152;2023-12-29T05:42:37;16;;;25;;
54458;SDS011;40368;49.350;8.152;2023-12-29T05:43:37;16;;;21;;
54458;SDS011;40368;49.350;8.152;2023-12-29T05:44:37;16;;;40;;
54458;SDS011;40368;49.350;8.152;2023-12-29T05:45:37;15;;;29;;
54458;SDS011;40368;49.350;8.152;2023-12-29T05:46:37;15;;;29;;
54458;SDS011;40368;49.350;8.152;2023-12-29T05:47:37;17;;;31;;
54458;SDS011;40368;49.350;8.152;2023-12-29T05:48:37;15;;;21;;
54458;SDS011;40368;49.350;8.152;2023-12-29T05:49:37;15;;;21;;
54458;SDS011;40368;49.350;8.152;2023-12-29T05:50:37;14;;;33;;
54458;SDS011;40368;49.350;8.152;2023-12-29T05:51:37;13;;;20;;
54458;SDS011;40368;49.350;8.152;2023-12-29T05:52:37;15;;;28;;
54458;SDS011;40368;49.350;8.152;2023-12-29T05:53:38;13;;;18;;
54458;SDS011;40368;49.350;8.152;2023-12-29T05:54:37;14;;;30;;
54458;SDS011;40368;49.350;8.152;2023-12-29T05:55:37;15;;;24;;
54458;SDS011;40368;49.350;8.152;2023-12-29T05:56:37;16;;;22;;
54458;SDS011;40368;49.350;8.152;2023-12-29T05:57:37;15;;;31;;
54458;SDS011;40368;49.350;8.152;2023-12-29T05:58:37;15;;;25;;
54458;SDS011;40368;49.350;8.152;2023-12-29T05:59:37;15;;;22;;
54458;SDS011;40368;49.350;8.152;2023-12-29T06:00:37;12;;;15;;
54458;SDS011;40368;49.350;8.152;2023-12-29T06:01:37;17;;;27;;
54458;SDS011;40368;49.350;8.152;2023-12-29T06:02:37;17;;;27;;
54458;SDS011;40368;49.350;8.152;2023-12-29T06:03:37;12;;;21;;
54458;SDS011;40368;49.350;8.152;2023-12-29T06:04:37;15;;;23;;
54458;SDS011;40368;49.350;8.152;2023-12-29T06:05:37;16;;;38;;
54458;SDS011;40368;49.350;8.152;2023-12-29T06:06:37;16;;;39;;
54458;SDS011;40368;49.350;8.152;2023-12-29T06:07:37;14;;;25;;
54458;SDS011;40368;49.350;8.152;2023-12-29T06:08:37;14;;;34;;
54458;SDS011;40368;49.350;8.152;2023-12-29T06:09:37;16;;;31;;
54458;SDS011;40368;49.350;8.152;2023-12-29T06:10:37;14;;;29;;
54458;SDS011;40368;49.350;8.152;2023-12-29T06:11:37;17;;;36;;
54458;SDS011;40368;49.350;8.152;2023-12-29T06:12:37;15;;;23;;
54458;SDS011;40368;49.350;8.152;2023-12-29T06:13:37;15;;;24;;
54458;SDS011;40368;49.350;8.152;2023-12-29T06:14:37;15;;;27;;
54458;SDS011;40368;49.350;8.152;2023-12-29T06:15:37;13;;;18;;
54458;SDS011;40368;49.350;8.152;2023-12-29T06:16:37;15;;;34;;
54458;SDS011;40368;49.350;8.152;2023-12-29T06:17:37;15;;;39;;
54458;SDS011;40368;49.350;8.152;2023-12-29T06:18:37;17;;;30;;
54458;SDS011;40368;49.350;8.152;2023-12-29T06:19:37;14;;;28;;
54458;SDS011;40368;49.350;8.152;2023-12-29T06:20:37;14;;;32;;
54458;SDS011;40368;49.350;8.152;2023-12-29T06:21:40;14;;;32;;
54458;SDS011;40368;49.350;8.152;2023-12-29T06:22:38;14;;;20;;
54458;SDS011;40368;49.350;8.152;2023-12-29T06:23:37;16;;;29;;
54458;SDS011;40368;49.350;8.152;2023-12-29T06:24:37;17;;;29;;
54458;SDS011;40368;49.350;8.152;2023-12-29T06:25:37;14;;;23;;